»·PEaware :: N7914W KVNY-KSNA

N7914W :: KVNY-KSNA

FLIGHT INFORMATION

Flight Status: Arrived
Operator: Privately registered:
United States
More flights under this callsign
Pilot: Andrew M. (139)
Aircraft: CESSNA 172 SKYHAWK
(C172)
More flights by this aircraft type
Origin: KVNY Van Nuys
United States
Destination: KSNA John Wayne-Orange Co
United States
More flights between these airports :: More routes between these airports
Route: ADAMM2 ADAMM V186 BAYJY V363 POXKU V8 SLI
File this flight plan on PilotEdge
Remarks:
Altitude:
(Current/Filed)
9,000ft
Speed:
(Current/Filed)
115kts
Departed: 08-Feb-19 06:58 PM
Arrived: 08-Feb-19 07:31 PM
Distance/Time
Traveled:
44nm/0:33
Distance/Time
To Go:
Arrived

Flight Plot

Page will automatically refresh every two minutes.


Map Options




Map Legend


Flown Route
Filed Route
Departure Airport
Arrival Airport
Navaid (VOR, NDB)
Fix

Horizontal Profiles

Position Reports

Time Latitude Longitude Heading Altitude Ground
Speed
08-Feb-19 18:18 34.205961 -118.487257 271 806ft 0kts
08-Feb-19 18:19 34.205961 -118.487257 271 806ft 0kts
08-Feb-19 18:20 34.205961 -118.487257 271 806ft 0kts
08-Feb-19 18:21 34.205961 -118.487257 271 806ft 0kts
08-Feb-19 18:22 34.205961 -118.487257 271 806ft 0kts
08-Feb-19 18:23 34.205961 -118.487257 271 806ft 0kts
08-Feb-19 18:24 34.205961 -118.487257 271 806ft 0kts
08-Feb-19 18:25 34.205961 -118.487257 271 806ft 0kts
08-Feb-19 18:26 34.205961 -118.487257 271 806ft 0kts
08-Feb-19 18:27 34.205961 -118.487257 271 806ft 0kts
08-Feb-19 18:28 34.205961 -118.487257 271 806ft 0kts
08-Feb-19 18:29 34.205961 -118.487257 271 806ft 0kts
08-Feb-19 18:30 34.205961 -118.487257 271 806ft 0kts
08-Feb-19 18:31 34.205961 -118.487257 271 806ft 0kts
08-Feb-19 18:32 34.205961 -118.487257 271 806ft 0kts
08-Feb-19 18:33 34.205961 -118.487257 271 806ft 0kts
08-Feb-19 18:34 34.205961 -118.487257 271 806ft 0kts
08-Feb-19 18:35 34.205961 -118.487257 271 806ft 0kts
08-Feb-19 18:36 34.205961 -118.487257 271 806ft 0kts
08-Feb-19 18:37 34.205961 -118.487257 271 806ft 0kts
08-Feb-19 18:38 34.205961 -118.487257 271 806ft 0kts
08-Feb-19 18:39 34.205961 -118.487257 271 806ft 0kts
08-Feb-19 18:40 34.205961 -118.487257 271 806ft 0kts
08-Feb-19 18:41 34.205961 -118.487257 271 806ft 0kts
08-Feb-19 18:43 34.205961 -118.487257 271 806ft 0kts
08-Feb-19 18:44 34.205961 -118.487257 271 806ft 0kts
08-Feb-19 18:45 34.205961 -118.487257 271 806ft 0kts
08-Feb-19 18:46 34.205961 -118.487257 271 806ft 0kts
08-Feb-19 18:47 34.205961 -118.487257 271 806ft 0kts
08-Feb-19 18:48 34.205961 -118.487257 271 806ft 0kts
08-Feb-19 18:49 34.205961 -118.487257 271 806ft 0kts
08-Feb-19 18:50 34.205639 -118.488181 277 806ft 5kts
08-Feb-19 18:51 34.207345 -118.488232 4 806ft 7kts
08-Feb-19 18:52 34.209495 -118.488312 357 806ft 7kts
08-Feb-19 18:53 34.211549 -118.488489 355 806ft 8kts
08-Feb-19 18:54 34.213982 -118.488730 356 806ft 9kts
08-Feb-19 18:55 34.216415 -118.489146 346 806ft 7kts
08-Feb-19 18:56 34.218247 -118.489419 356 806ft 6kts
08-Feb-19 18:57 34.218334 -118.489945 176 806ft 27kts
08-Feb-19 18:58 34.201504 -118.482792 116 1242ft 77kts
08-Feb-19 18:59 34.184055 -118.474702 130 1829ft 64kts
08-Feb-19 19:00 34.172086 -118.456214 128 2169ft 76kts
08-Feb-19 19:00 34.169082 -118.435447 119 2608ft 79kts
08-Feb-19 19:02 34.170601 -118.405308 103 3531ft 81kts
08-Feb-19 19:03 34.173310 -118.380511 83 4120ft 65kts
08-Feb-19 19:03 34.176174 -118.358497 86 4260ft 89kts
08-Feb-19 19:05 34.170331 -118.324437 113 4787ft 89kts
08-Feb-19 19:06 34.161057 -118.293704 112 4993ft 117kts
08-Feb-19 19:06 34.151928 -118.262913 113 4987ft 111kts
08-Feb-19 19:07 34.141771 -118.229921 113 4985ft 100kts
08-Feb-19 19:09 34.128947 -118.190242 112 4982ft 115kts
08-Feb-19 19:09 34.120321 -118.160889 112 4985ft 108kts
08-Feb-19 19:10 34.108495 -118.126916 115 4987ft 111kts
08-Feb-19 19:11 34.100268 -118.091716 108 4986ft 106kts
08-Feb-19 19:12 34.091112 -118.058279 112 4986ft 104kts
08-Feb-19 19:13 34.081298 -118.025283 112 5007ft 105kts
08-Feb-19 19:14 34.060600 -118.020259 210 5005ft 101kts
08-Feb-19 19:15 34.035069 -118.010325 154 5006ft 103kts
08-Feb-19 19:16 34.014412 -117.985653 135 5007ft 105kts
08-Feb-19 19:17 33.993839 -117.961163 159 5012ft 103kts
08-Feb-19 19:18 33.966210 -117.952502 167 5015ft 102kts
08-Feb-19 19:19 33.937042 -117.944164 167 4986ft 111kts
08-Feb-19 19:20 33.906415 -117.936281 163 4486ft 111kts
08-Feb-19 19:21 33.876723 -117.927980 167 3993ft 111kts
08-Feb-19 19:22 33.847113 -117.918964 166 3492ft 110kts
08-Feb-19 19:23 33.815424 -117.909447 166 3003ft 122kts
08-Feb-19 19:24 33.785779 -117.899278 157 2902ft 106kts
08-Feb-19 19:25 33.759582 -117.883455 153 2327ft 101kts
08-Feb-19 19:26 33.735912 -117.867706 151 1699ft 90kts
08-Feb-19 19:27 33.714992 -117.855387 159 1042ft 72kts
08-Feb-19 19:28 33.697435 -117.854914 205 505ft 58kts
08-Feb-19 19:29 33.682632 -117.864460 206 156ft 61kts
08-Feb-19 19:30 33.675800 -117.869319 284 60ft 6kts
08-Feb-19 19:31 33.676273 -117.870985 227 60ft 1kts
08-Feb-19 19:32 33.676260 -117.871001 226 60ft 0kts
08-Feb-19 19:33 33.676260 -117.871001 226 60ft 0kts

Navigation Log

Ident Type
Flight plan parsing failed, navigation log unavailable